sensor_id;sensor_type;location;lat;lon;timestamp;pressure;altitude;pressure_sealevel;temperature;humidity
47811;BME280;33575;52.600;7.318;2022-07-29T00:02:02;101670.59;;;17.37;70.17
47811;BME280;33575;52.600;7.318;2022-07-29T00:04:34;101662.10;;;17.39;70.17
47811;BME280;33575;52.600;7.318;2022-07-29T00:07:03;101664.72;;;17.39;70.40
47811;BME280;33575;52.600;7.318;2022-07-29T00:09:33;101661.24;;;17.45;69.93
47811;BME280;33575;52.600;7.318;2022-07-29T00:12:04;101659.07;;;17.43;69.90
47811;BME280;33575;52.600;7.318;2022-07-29T00:14:34;101658.20;;;17.39;70.47
47811;BME280;33575;52.600;7.318;2022-07-29T00:17:04;101653.74;;;17.44;70.06
47811;BME280;33575;52.600;7.318;2022-07-29T00:19:35;101649.59;;;17.43;70.07
47811;BME280;33575;52.600;7.318;2022-07-29T00:22:05;101647.52;;;17.45;70.23
47811;BME280;33575;52.600;7.318;2022-07-29T00:24:35;101644.77;;;17.44;70.06
47811;BME280;33575;52.600;7.318;2022-07-29T00:27:06;101639.09;;;17.39;70.44
47811;BME280;33575;52.600;7.318;2022-07-29T00:29:36;101636.76;;;17.33;70.33
47811;BME280;33575;52.600;7.318;2022-07-29T00:32:07;101634.83;;;17.33;70.47
47811;BME280;33575;52.600;7.318;2022-07-29T00:34:37;101629.16;;;17.34;70.70
47811;BME280;33575;52.600;7.318;2022-07-29T00:37:08;101626.84;;;17.30;71.05
47811;BME280;33575;52.600;7.318;2022-07-29T00:39:37;101622.54;;;17.29;71.01
47811;BME280;33575;52.600;7.318;2022-07-29T00:42:08;101623.21;;;17.23;71.25
47811;BME280;33575;52.600;7.318;2022-07-29T00:44:39;101622.87;;;17.22;71.05
47811;BME280;33575;52.600;7.318;2022-07-29T00:47:10;101623.39;;;17.26;71.08
47811;BME280;33575;52.600;7.318;2022-07-29T00:49:41;101616.19;;;17.25;71.07
47811;BME280;33575;52.600;7.318;2022-07-29T00:52:10;101617.00;;;17.22;71.13
47811;BME280;33575;52.600;7.318;2022-07-29T00:54:45;101611.05;;;17.19;71.08
47811;BME280;33575;52.600;7.318;2022-07-29T00:57:10;101608.80;;;17.20;71.12
47811;BME280;33575;52.600;7.318;2022-07-29T00:59:40;101607.67;;;17.19;70.87
47811;BME280;33575;52.600;7.318;2022-07-29T01:02:11;101603.21;;;17.22;70.78
47811;BME280;33575;52.600;7.318;2022-07-29T01:04:41;101600.33;;;17.19;70.79
47811;BME280;33575;52.600;7.318;2022-07-29T01:07:12;101601.77;;;17.12;70.88
47811;BME280;33575;52.600;7.318;2022-07-29T01:09:47;101598.16;;;17.14;71.07
47811;BME280;33575;52.600;7.318;2022-07-29T01:12:14;101597.69;;;17.09;70.90
47811;BME280;33575;52.600;7.318;2022-07-29T01:14:43;101595.85;;;17.13;70.75
47811;BME280;33575;52.600;7.318;2022-07-29T01:17:18;101592.53;;;17.16;71.14
47811;BME280;33575;52.600;7.318;2022-07-29T01:19:49;101589.61;;;17.16;70.87
47811;BME280;33575;52.600;7.318;2022-07-29T01:22:26;101586.69;;;17.21;70.69
47811;BME280;33575;52.600;7.318;2022-07-29T01:25:01;101582.10;;;17.19;71.01
47811;BME280;33575;52.600;7.318;2022-07-29T01:27:32;101582.53;;;17.17;70.98
47811;BME280;33575;52.600;7.318;2022-07-29T01:29:51;101584.09;;;17.18;71.25
47811;BME280;33575;52.600;7.318;2022-07-29T01:32:25;101583.49;;;17.20;70.86
47811;BME280;33575;52.600;7.318;2022-07-29T01:34:50;101579.67;;;17.15;70.88
47811;BME280;33575;52.600;7.318;2022-07-29T01:37:19;101571.81;;;17.10;71.13
47811;BME280;33575;52.600;7.318;2022-07-29T01:39:49;101571.33;;;17.05;71.06
47811;BME280;33575;52.600;7.318;2022-07-29T01:42:25;101573.22;;;17.10;71.69
47811;BME280;33575;52.600;7.318;2022-07-29T01:44:53;101574.11;;;17.13;71.12
47811;BME280;33575;52.600;7.318;2022-07-29T01:47:20;101576.32;;;17.13;70.98
47811;BME280;33575;52.600;7.318;2022-07-29T01:49:51;101573.88;;;17.16;70.82
47811;BME280;33575;52.600;7.318;2022-07-29T01:52:26;101570.18;;;17.16;70.88
47811;BME280;33575;52.600;7.318;2022-07-29T01:54:53;101565.25;;;17.14;70.97
47811;BME280;33575;52.600;7.318;2022-07-29T01:57:23;101563.54;;;17.15;70.70
47811;BME280;33575;52.600;7.318;2022-07-29T01:59:51;101560.01;;;17.15;70.99
47811;BME280;33575;52.600;7.318;2022-07-29T02:02:21;101557.35;;;17.10;71.01
47811;BME280;33575;52.600;7.318;2022-07-29T02:04:51;101556.21;;;17.06;71.21
47811;BME280;33575;52.600;7.318;2022-07-29T02:07:22;101549.46;;;17.04;71.28
47811;BME280;33575;52.600;7.318;2022-07-29T02:09:52;101548.78;;;16.99;71.39
47811;BME280;33575;52.600;7.318;2022-07-29T02:12:22;101550.74;;;16.99;71.22
47811;BME280;33575;52.600;7.318;2022-07-29T02:14:53;101547.55;;;16.93;71.51
47811;BME280;33575;52.600;7.318;2022-07-29T02:17:26;101545.69;;;16.92;71.67
47811;BME280;33575;52.600;7.318;2022-07-29T02:19:57;101539.88;;;16.93;71.47
47811;BME280;33575;52.600;7.318;2022-07-29T02:22:24;101542.15;;;16.94;71.31
47811;BME280;33575;52.600;7.318;2022-07-29T02:24:53;101542.30;;;16.92;71.43
47811;BME280;33575;52.600;7.318;2022-07-29T02:27:25;101542.09;;;16.89;71.67
47811;BME280;33575;52.600;7.318;2022-07-29T02:29:55;101536.31;;;16.85;71.88
47811;BME280;33575;52.600;7.318;2022-07-29T02:32:26;101534.50;;;16.80;71.86
47811;BME280;33575;52.600;7.318;2022-07-29T02:34:56;101534.73;;;16.82;71.95
47811;BME280;33575;52.600;7.318;2022-07-29T02:37:26;101534.09;;;16.81;71.86
47811;BME280;33575;52.600;7.318;2022-07-29T02:39:57;101536.60;;;16.78;71.89
47811;BME280;33575;52.600;7.318;2022-07-29T02:42:27;101537.10;;;16.73;72.11
47811;BME280;33575;52.600;7.318;2022-07-29T02:44:57;101533.33;;;16.63;72.29
47811;BME280;33575;52.600;7.318;2022-07-29T02:47:32;101534.52;;;16.61;72.33
47811;BME280;33575;52.600;7.318;2022-07-29T02:50:03;101534.62;;;16.66;72.01
47811;BME280;33575;52.600;7.318;2022-07-29T02:52:37;101534.87;;;16.62;72.13
47811;BME280;33575;52.600;7.318;2022-07-29T02:55:02;101531.28;;;16.67;71.96
47811;BME280;33575;52.600;7.318;2022-07-29T02:57:32;101527.45;;;16.65;72.31
47811;BME280;33575;52.600;7.318;2022-07-29T03:00:04;101527.33;;;16.68;72.28
47811;BME280;33575;52.600;7.318;2022-07-29T03:02:35;101528.86;;;16.67;72.22
47811;BME280;33575;52.600;7.318;2022-07-29T03:05:03;101531.70;;;16.70;72.11
47811;BME280;33575;52.600;7.318;2022-07-29T03:07:31;101532.69;;;16.75;71.88
47811;BME280;33575;52.600;7.318;2022-07-29T03:10:02;101530.88;;;16.81;71.83
47811;BME280;33575;52.600;7.318;2022-07-29T03:12:31;101529.16;;;16.80;72.01
47811;BME280;33575;52.600;7.318;2022-07-29T03:15:02;101532.17;;;16.81;72.11
47811;BME280;33575;52.600;7.318;2022-07-29T03:17:31;101530.14;;;16.81;72.24
47811;BME280;33575;52.600;7.318;2022-07-29T03:20:03;101526.24;;;16.83;72.02
47811;BME280;33575;52.600;7.318;2022-07-29T03:22:32;101522.67;;;16.83;71.91
47811;BME280;33575;52.600;7.318;2022-07-29T03:25:08;101523.34;;;16.85;71.79
47811;BME280;33575;52.600;7.318;2022-07-29T03:27:34;101521.46;;;16.81;71.95
47811;BME280;33575;52.600;7.318;2022-07-29T03:30:06;101523.36;;;16.81;71.94
47811;BME280;33575;52.600;7.318;2022-07-29T03:32:34;101524.98;;;16.80;71.90
47811;BME280;33575;52.600;7.318;2022-07-29T03:35:05;101525.82;;;16.78;72.02
47811;BME280;33575;52.600;7.318;2022-07-29T03:37:35;101524.68;;;16.80;71.79
47811;BME280;33575;52.600;7.318;2022-07-29T03:40:08;101520.14;;;16.74;72.15
47811;BME280;33575;52.600;7.318;2022-07-29T03:42:37;101521.94;;;16.73;72.29
47811;BME280;33575;52.600;7.318;2022-07-29T03:45:09;101515.03;;;16.72;71.95
47811;BME280;33575;52.600;7.318;2022-07-29T03:47:47;101513.01;;;16.69;71.93
47811;BME280;33575;52.600;7.318;2022-07-29T03:50:13;101515.61;;;16.66;71.95
47811;BME280;33575;52.600;7.318;2022-07-29T03:52:37;101517.91;;;16.62;72.37
47811;BME280;33575;52.600;7.318;2022-07-29T03:55:09;101520.04;;;16.61;72.22
47811;BME280;33575;52.600;7.318;2022-07-29T03:57:39;101519.80;;;16.58;72.30
47811;BME280;33575;52.600;7.318;2022-07-29T04:00:09;101519.94;;;16.58;72.87
47811;BME280;33575;52.600;7.318;2022-07-29T04:02:39;101520.00;;;16.58;72.57
47811;BME280;33575;52.600;7.318;2022-07-29T04:05:12;101520.26;;;16.58;72.44
47811;BME280;33575;52.600;7.318;2022-07-29T04:07:39;101516.08;;;16.55;72.90
47811;BME280;33575;52.600;7.318;2022-07-29T04:10:10;101518.24;;;16.56;72.92
47811;BME280;33575;52.600;7.318;2022-07-29T04:12:40;101518.96;;;16.53;72.74
47811;BME280;33575;52.600;7.318;2022-07-29T04:15:11;101524.73;;;16.52;72.91
47811;BME280;33575;52.600;7.318;2022-07-29T04:17:41;101527.92;;;16.48;73.12
47811;BME280;33575;52.600;7.318;2022-07-29T04:20:11;101526.23;;;16.51;72.93
47811;BME280;33575;52.600;7.318;2022-07-29T04:22:42;101524.67;;;16.51;72.98
47811;BME280;33575;52.600;7.318;2022-07-29T04:25:12;101521.75;;;16.50;72.82
47811;BME280;33575;52.600;7.318;2022-07-29T04:27:42;101526.76;;;16.51;72.86
47811;BME280;33575;52.600;7.318;2022-07-29T04:30:13;101524.92;;;16.51;72.87
47811;BME280;33575;52.600;7.318;2022-07-29T04:32:43;101527.91;;;16.54;72.88
47811;BME280;33575;52.600;7.318;2022-07-29T04:35:13;101532.05;;;16.56;72.87
47811;BME280;33575;52.600;7.318;2022-07-29T04:37:44;101537.28;;;16.60;72.79
47811;BME280;33575;52.600;7.318;2022-07-29T04:40:15;101538.50;;;16.63;72.72
47811;BME280;33575;52.600;7.318;2022-07-29T04:42:48;101532.29;;;16.63;72.59
47811;BME280;33575;52.600;7.318;2022-07-29T04:45:15;101528.41;;;16.56;72.97
47811;BME280;33575;52.600;7.318;2022-07-29T04:47:45;101531.65;;;16.56;72.81
47811;BME280;33575;52.600;7.318;2022-07-29T04:50:16;101534.02;;;16.59;73.00
47811;BME280;33575;52.600;7.318;2022-07-29T04:52:46;101530.54;;;16.61;72.78
47811;BME280;33575;52.600;7.318;2022-07-29T04:55:17;101528.87;;;16.58;72.74
47811;BME280;33575;52.600;7.318;2022-07-29T04:57:47;101527.43;;;16.47;73.24
47811;BME280;33575;52.600;7.318;2022-07-29T05:00:18;101524.70;;;16.46;73.18
47811;BME280;33575;52.600;7.318;2022-07-29T05:02:48;101525.65;;;16.48;73.29
47811;BME280;33575;52.600;7.318;2022-07-29T05:05:18;101530.15;;;16.51;73.50
47811;BME280;33575;52.600;7.318;2022-07-29T05:07:49;101529.36;;;16.49;73.34
47811;BME280;33575;52.600;7.318;2022-07-29T05:10:19;101529.63;;;16.50;73.59
47811;BME280;33575;52.600;7.318;2022-07-29T05:12:50;101534.90;;;16.48;73.33
47811;BME280;33575;52.600;7.318;2022-07-29T05:15:20;101531.72;;;16.49;73.51
47811;BME280;33575;52.600;7.318;2022-07-29T05:17:50;101529.53;;;16.51;73.51
47811;BME280;33575;52.600;7.318;2022-07-29T05:20:21;101528.21;;;16.49;73.46
47811;BME280;33575;52.600;7.318;2022-07-29T05:22:51;101530.94;;;16.55;73.40
47811;BME280;33575;52.600;7.318;2022-07-29T05:25:22;101532.18;;;16.58;73.59
47811;BME280;33575;52.600;7.318;2022-07-29T05:27:52;101529.14;;;16.60;73.64
47811;BME280;33575;52.600;7.318;2022-07-29T05:30:23;101524.53;;;16.63;73.32
47811;BME280;33575;52.600;7.318;2022-07-29T05:32:53;101522.86;;;16.62;73.45
47811;BME280;33575;52.600;7.318;2022-07-29T05:35:23;101525.79;;;16.64;73.55
47811;BME280;33575;52.600;7.318;2022-07-29T05:37:54;101528.14;;;16.65;73.98
47811;BME280;33575;52.600;7.318;2022-07-29T05:40:24;101525.80;;;16.68;73.74
47811;BME280;33575;52.600;7.318;2022-07-29T05:42:55;101525.52;;;16.63;74.23
47811;BME280;33575;52.600;7.318;2022-07-29T05:45:25;101521.48;;;16.65;73.61
47811;BME280;33575;52.600;7.318;2022-07-29T05:47:55;101524.81;;;16.70;73.87
47811;BME280;33575;52.600;7.318;2022-07-29T05:50:26;101529.23;;;16.68;73.91
47811;BME280;33575;52.600;7.318;2022-07-29T05:52:56;101529.36;;;16.62;73.76
47811;BME280;33575;52.600;7.318;2022-07-29T05:55:26;101528.89;;;16.66;74.00
47811;BME280;33575;52.600;7.318;2022-07-29T05:57:56;101532.37;;;16.67;73.58
47811;BME280;33575;52.600;7.318;2022-07-29T06:00:30;101532.99;;;16.75;73.31
47811;BME280;33575;52.600;7.318;2022-07-29T06:02:57;101533.26;;;16.80;73.53
47811;BME280;33575;52.600;7.318;2022-07-29T06:05:28;101532.94;;;16.86;73.68
47811;BME280;33575;52.600;7.318;2022-07-29T06:07:58;101531.86;;;16.91;73.46
47811;BME280;33575;52.600;7.318;2022-07-29T06:10:28;101531.52;;;16.96;74.24
47811;BME280;33575;52.600;7.318;2022-07-29T06:12:59;101530.48;;;17.07;73.20
47811;BME280;33575;52.600;7.318;2022-07-29T06:15:29;101530.53;;;17.13;73.03
47811;BME280;33575;52.600;7.318;2022-07-29T06:18:02;101530.49;;;17.12;73.19
47811;BME280;33575;52.600;7.318;2022-07-29T06:20:31;101534.64;;;17.17;73.17
47811;BME280;33575;52.600;7.318;2022-07-29T06:23:00;101539.65;;;17.20;73.20
47811;BME280;33575;52.600;7.318;2022-07-29T06:25:31;101544.60;;;17.26;72.98
47811;BME280;33575;52.600;7.318;2022-07-29T06:28:01;101550.74;;;17.29;73.02
47811;BME280;33575;52.600;7.318;2022-07-29T06:30:32;101559.13;;;17.32;73.26
47811;BME280;33575;52.600;7.318;2022-07-29T06:33:02;101557.13;;;17.41;72.94
47811;BME280;33575;52.600;7.318;2022-07-29T06:35:37;101556.31;;;17.46;72.99
47811;BME280;33575;52.600;7.318;2022-07-29T06:38:03;101554.47;;;17.49;72.36
47811;BME280;33575;52.600;7.318;2022-07-29T06:40:33;101552.08;;;17.60;72.46
47811;BME280;33575;52.600;7.318;2022-07-29T06:43:03;101547.59;;;17.68;72.36
47811;BME280;33575;52.600;7.318;2022-07-29T06:45:34;101552.27;;;17.75;72.25
47811;BME280;33575;52.600;7.318;2022-07-29T06:48:04;101564.41;;;17.85;71.51
47811;BME280;33575;52.600;7.318;2022-07-29T06:50:34;101566.16;;;17.85;71.67
47811;BME280;33575;52.600;7.318;2022-07-29T06:53:04;101571.50;;;17.88;71.93
47811;BME280;33575;52.600;7.318;2022-07-29T06:55:35;101571.60;;;17.92;71.73
47811;BME280;33575;52.600;7.318;2022-07-29T06:58:05;101574.62;;;17.95;71.97
47811;BME280;33575;52.600;7.318;2022-07-29T07:00:35;101573.75;;;17.97;72.03
47811;BME280;33575;52.600;7.318;2022-07-29T07:03:06;101576.54;;;18.01;71.74
47811;BME280;33575;52.600;7.318;2022-07-29T07:05:36;101584.52;;;18.06;72.00
47811;BME280;33575;52.600;7.318;2022-07-29T07:08:06;101581.82;;;18.13;71.87
47811;BME280;33575;52.600;7.318;2022-07-29T07:10:37;101581.39;;;18.19;71.76
47811;BME280;33575;52.600;7.318;2022-07-29T07:13:08;101589.09;;;18.27;71.51
47811;BME280;33575;52.600;7.318;2022-07-29T07:15:40;101596.52;;;18.33;71.19
47811;BME280;33575;52.600;7.318;2022-07-29T07:18:08;101596.22;;;18.25;69.38
47811;BME280;33575;52.600;7.318;2022-07-29T07:20:38;101592.68;;;18.29;70.14
47811;BME280;33575;52.600;7.318;2022-07-29T07:23:08;101593.03;;;18.34;69.96
47811;BME280;33575;52.600;7.318;2022-07-29T07:25:39;101588.93;;;18.37;69.86
47811;BME280;33575;52.600;7.318;2022-07-29T07:28:09;101584.61;;;18.43;70.32
47811;BME280;33575;52.600;7.318;2022-07-29T07:30:40;101584.44;;;18.48;69.86
47811;BME280;33575;52.600;7.318;2022-07-29T07:33:10;101585.58;;;18.44;69.75
47811;BME280;33575;52.600;7.318;2022-07-29T07:35:40;101585.30;;;18.38;69.50
47811;BME280;33575;52.600;7.318;2022-07-29T07:38:11;101582.30;;;18.41;69.91
47811;BME280;33575;52.600;7.318;2022-07-29T07:40:41;101580.34;;;18.52;70.13
47811;BME280;33575;52.600;7.318;2022-07-29T07:43:11;101577.35;;;18.60;70.68
47811;BME280;33575;52.600;7.318;2022-07-29T07:45:42;101574.09;;;18.67;69.87
47811;BME280;33575;52.600;7.318;2022-07-29T07:48:12;101570.23;;;18.73;69.28
47811;BME280;33575;52.600;7.318;2022-07-29T07:50:42;101567.40;;;18.74;69.42
47811;BME280;33575;52.600;7.318;2022-07-29T07:53:13;101562.18;;;18.75;69.06
47811;BME280;33575;52.600;7.318;2022-07-29T07:55:48;101561.55;;;18.74;68.79
47811;BME280;33575;52.600;7.318;2022-07-29T07:58:13;101562.19;;;18.77;69.21
47811;BME280;33575;52.600;7.318;2022-07-29T08:00:44;101564.69;;;18.83;69.30
47811;BME280;33575;52.600;7.318;2022-07-29T08:03:18;101563.79;;;18.89;69.34
47811;BME280;33575;52.600;7.318;2022-07-29T08:05:44;101561.12;;;18.92;68.83
47811;BME280;33575;52.600;7.318;2022-07-29T08:08:14;101560.84;;;18.84;69.31
47811;BME280;33575;52.600;7.318;2022-07-29T08:10:45;101561.01;;;18.85;69.91
47811;BME280;33575;52.600;7.318;2022-07-29T08:13:15;101562.02;;;18.84;70.20
47811;BME280;33575;52.600;7.318;2022-07-29T08:15:46;101561.91;;;18.97;70.29
47811;BME280;33575;52.600;7.318;2022-07-29T08:18:16;101560.86;;;19.12;70.17
47811;BME280;33575;52.600;7.318;2022-07-29T08:20:46;101558.12;;;19.23;69.25
47811;BME280;33575;52.600;7.318;2022-07-29T08:23:16;101560.31;;;19.21;69.00
47811;BME280;33575;52.600;7.318;2022-07-29T08:25:51;101562.83;;;19.32;68.86
47811;BME280;33575;52.600;7.318;2022-07-29T08:28:17;101564.88;;;19.39;69.11
47811;BME280;33575;52.600;7.318;2022-07-29T08:30:47;101565.55;;;19.52;68.96
47811;BME280;33575;52.600;7.318;2022-07-29T08:33:18;101558.19;;;19.63;69.45
47811;BME280;33575;52.600;7.318;2022-07-29T08:35:48;101553.94;;;19.73;69.25
47811;BME280;33575;52.600;7.318;2022-07-29T08:38:18;101555.49;;;19.81;67.92
47811;BME280;33575;52.600;7.318;2022-07-29T08:40:49;101551.33;;;19.90;67.21
47811;BME280;33575;52.600;7.318;2022-07-29T08:43:19;101550.90;;;19.89;67.50
47811;BME280;33575;52.600;7.318;2022-07-29T08:45:51;101551.29;;;19.82;67.16
47811;BME280;33575;52.600;7.318;2022-07-29T08:48:22;101547.57;;;19.89;67.07
47811;BME280;33575;52.600;7.318;2022-07-29T08:50:54;101547.79;;;19.94;67.56
47811;BME280;33575;52.600;7.318;2022-07-29T08:53:21;101546.09;;;20.03;68.54
47811;BME280;33575;52.600;7.318;2022-07-29T08:55:50;101546.82;;;20.13;68.35
47811;BME280;33575;52.600;7.318;2022-07-29T08:58:27;101545.61;;;20.16;67.55
47811;BME280;33575;52.600;7.318;2022-07-29T09:00:54;101546.80;;;20.27;67.55
47811;BME280;33575;52.600;7.318;2022-07-29T09:03:24;101551.10;;;20.38;67.71
47811;BME280;33575;52.600;7.318;2022-07-29T09:05:52;101553.62;;;20.44;67.08
47811;BME280;33575;52.600;7.318;2022-07-29T09:08:23;101554.06;;;20.50;67.02
47811;BME280;33575;52.600;7.318;2022-07-29T09:10:53;101550.86;;;20.53;66.42
47811;BME280;33575;52.600;7.318;2022-07-29T09:13:23;101549.43;;;20.56;65.93
47811;BME280;33575;52.600;7.318;2022-07-29T09:15:53;101551.51;;;20.64;66.52
47811;BME280;33575;52.600;7.318;2022-07-29T09:18:33;101552.88;;;20.66;66.35
47811;BME280;33575;52.600;7.318;2022-07-29T09:20:54;101555.62;;;20.75;66.77
47811;BME280;33575;52.600;7.318;2022-07-29T09:23:25;101556.52;;;20.80;66.83
47811;BME280;33575;52.600;7.318;2022-07-29T09:25:54;101554.46;;;20.87;66.34
47811;BME280;33575;52.600;7.318;2022-07-29T09:28:25;101552.63;;;20.95;66.91
47811;BME280;33575;52.600;7.318;2022-07-29T09:30:57;101549.85;;;21.02;66.70
47811;BME280;33575;52.600;7.318;2022-07-29T09:33:31;101550.15;;;21.08;67.09
47811;BME280;33575;52.600;7.318;2022-07-29T09:36:00;101554.33;;;21.11;66.19
47811;BME280;33575;52.600;7.318;2022-07-29T09:38:26;101552.55;;;21.12;65.93
47811;BME280;33575;52.600;7.318;2022-07-29T09:41:02;101551.07;;;21.13;65.58
47811;BME280;33575;52.600;7.318;2022-07-29T09:43:27;101549.85;;;21.14;66.11
47811;BME280;33575;52.600;7.318;2022-07-29T09:46:09;101549.66;;;21.16;65.31
47811;BME280;33575;52.600;7.318;2022-07-29T09:48:27;101550.02;;;21.12;64.41
47811;BME280;33575;52.600;7.318;2022-07-29T09:50:57;101551.61;;;21.05;63.89
47811;BME280;33575;52.600;7.318;2022-07-29T09:53:32;101553.50;;;21.06;64.78
47811;BME280;33575;52.600;7.318;2022-07-29T09:55:58;101553.99;;;21.00;64.04
47811;BME280;33575;52.600;7.318;2022-07-29T09:58:28;101553.42;;;21.01;64.28
47811;BME280;33575;52.600;7.318;2022-07-29T10:00:59;101555.33;;;21.03;65.29
47811;BME280;33575;52.600;7.318;2022-07-29T10:03:28;101557.47;;;21.06;65.88
47811;BME280;33575;52.600;7.318;2022-07-29T10:06:04;101560.52;;;21.07;65.73
47811;BME280;33575;52.600;7.318;2022-07-29T10:08:29;101560.82;;;21.09;65.92
47811;BME280;33575;52.600;7.318;2022-07-29T10:13:29;101562.09;;;21.09;66.28
47811;BME280;33575;52.600;7.318;2022-07-29T10:16:00;101564.07;;;21.09;66.37
47811;BME280;33575;52.600;7.318;2022-07-29T10:18:30;101565.32;;;21.11;66.41
47811;BME280;33575;52.600;7.318;2022-07-29T10:21:00;101563.63;;;21.14;66.12
47811;BME280;33575;52.600;7.318;2022-07-29T10:23:36;101559.79;;;21.13;65.12
47811;BME280;33575;52.600;7.318;2022-07-29T10:26:02;101560.14;;;21.10;64.90
47811;BME280;33575;52.600;7.318;2022-07-29T10:28:31;101557.64;;;21.06;64.79
47811;BME280;33575;52.600;7.318;2022-07-29T10:31:04;101558.35;;;21.05;64.59
47811;BME280;33575;52.600;7.318;2022-07-29T10:33:43;101563.78;;;21.07;65.34
47811;BME280;33575;52.600;7.318;2022-07-29T10:36:15;101572.20;;;21.10;65.76
47811;BME280;33575;52.600;7.318;2022-07-29T10:38:42;101573.31;;;21.13;66.05
47811;BME280;33575;52.600;7.318;2022-07-29T10:41:17;101564.11;;;20.92;65.89
47811;BME280;33575;52.600;7.318;2022-07-29T10:43:36;101557.41;;;20.89;66.86
47811;BME280;33575;52.600;7.318;2022-07-29T10:46:08;101556.18;;;20.81;67.33
47811;BME280;33575;52.600;7.318;2022-07-29T10:48:34;101560.90;;;20.87;67.22
47811;BME280;33575;52.600;7.318;2022-07-29T10:51:05;101562.55;;;20.93;67.03
47811;BME280;33575;52.600;7.318;2022-07-29T10:58:36;101559.95;;;20.97;66.38
47811;BME280;33575;52.600;7.318;2022-07-29T11:03:43;101562.23;;;21.06;66.93
47811;BME280;33575;52.600;7.318;2022-07-29T11:06:10;101563.86;;;21.14;66.97
47811;BME280;33575;52.600;7.318;2022-07-29T11:08:37;101564.37;;;21.20;67.14
47811;BME280;33575;52.600;7.318;2022-07-29T11:13:48;101572.90;;;21.31;67.41
47811;BME280;33575;52.600;7.318;2022-07-29T11:16:09;101570.09;;;21.36;67.90
47811;BME280;33575;52.600;7.318;2022-07-29T11:23:38;101570.34;;;21.37;70.88
47811;BME280;33575;52.600;7.318;2022-07-29T11:26:14;101564.54;;;21.36;71.37
47811;BME280;33575;52.600;7.318;2022-07-29T11:28:49;101560.70;;;21.31;70.88
47811;BME280;33575;52.600;7.318;2022-07-29T11:31:10;101561.61;;;21.23;71.06
47811;BME280;33575;52.600;7.318;2022-07-29T11:33:44;101559.72;;;21.20;70.39
47811;BME280;33575;52.600;7.318;2022-07-29T11:36:15;101561.37;;;21.14;71.16
47811;BME280;33575;52.600;7.318;2022-07-29T11:38:42;101559.96;;;21.12;72.36
47811;BME280;33575;52.600;7.318;2022-07-29T11:43:47;101565.81;;;21.20;73.45
47811;BME280;33575;52.600;7.318;2022-07-29T11:46:11;101568.67;;;21.22;72.47
47811;BME280;33575;52.600;7.318;2022-07-29T11:48:43;101565.90;;;21.22;72.30
47811;BME280;33575;52.600;7.318;2022-07-29T11:51:14;101558.15;;;21.26;72.77
47811;BME280;33575;52.600;7.318;2022-07-29T11:53:47;101559.35;;;21.30;73.31
47811;BME280;33575;52.600;7.318;2022-07-29T11:56:21;101555.49;;;21.32;74.53
47811;BME280;33575;52.600;7.318;2022-07-29T11:58:42;101555.58;;;21.34;74.41
47811;BME280;33575;52.600;7.318;2022-07-29T12:01:13;101555.53;;;21.31;76.03
47811;BME280;33575;52.600;7.318;2022-07-29T12:03:46;101554.57;;;21.29;74.76
47811;BME280;33575;52.600;7.318;2022-07-29T12:06:14;101553.70;;;21.27;75.28
47811;BME280;33575;52.600;7.318;2022-07-29T12:08:45;101551.31;;;21.26;75.77
47811;BME280;33575;52.600;7.318;2022-07-29T12:11:16;101549.61;;;21.23;75.80
47811;BME280;33575;52.600;7.318;2022-07-29T12:13:46;101543.36;;;21.20;75.74
47811;BME280;33575;52.600;7.318;2022-07-29T12:16:15;101536.36;;;21.08;76.91
47811;BME280;33575;52.600;7.318;2022-07-29T12:21:16;101526.21;;;20.86;76.51
47811;BME280;33575;52.600;7.318;2022-07-29T12:23:52;101516.37;;;20.76;77.02
47811;BME280;33575;52.600;7.318;2022-07-29T12:26:21;101510.62;;;20.70;76.91
47811;BME280;33575;52.600;7.318;2022-07-29T12:28:48;101507.85;;;20.64;77.62
47811;BME280;33575;52.600;7.318;2022-07-29T12:31:22;101510.79;;;20.61;77.43
47811;BME280;33575;52.600;7.318;2022-07-29T12:33:52;101509.51;;;20.62;77.20
47811;BME280;33575;52.600;7.318;2022-07-29T12:36:19;101508.02;;;20.57;79.44
47811;BME280;33575;52.600;7.318;2022-07-29T12:38:48;101505.12;;;20.56;80.04
47811;BME280;33575;52.600;7.318;2022-07-29T12:41:18;101506.66;;;20.58;80.10
47811;BME280;33575;52.600;7.318;2022-07-29T12:43:53;101509.01;;;20.61;80.11
47811;BME280;33575;52.600;7.318;2022-07-29T12:46:19;101508.36;;;20.64;81.69
47811;BME280;33575;52.600;7.318;2022-07-29T12:48:51;101507.77;;;20.67;80.79
47811;BME280;33575;52.600;7.318;2022-07-29T12:51:28;101508.22;;;20.66;81.12
47811;BME280;33575;52.600;7.318;2022-07-29T12:56:25;101507.32;;;20.70;81.36
47811;BME280;33575;52.600;7.318;2022-07-29T12:58:52;101504.65;;;20.66;81.33
47811;BME280;33575;52.600;7.318;2022-07-29T13:01:20;101505.50;;;20.68;81.84
47811;BME280;33575;52.600;7.318;2022-07-29T13:03:57;101503.07;;;20.64;82.41
47811;BME280;33575;52.600;7.318;2022-07-29T13:06:30;101504.73;;;20.57;82.29
47811;BME280;33575;52.600;7.318;2022-07-29T13:09:00;101509.10;;;20.57;81.75
47811;BME280;33575;52.600;7.318;2022-07-29T13:11:28;101515.44;;;20.63;81.00
47811;BME280;33575;52.600;7.318;2022-07-29T13:13:56;101512.30;;;20.65;80.73
47811;BME280;33575;52.600;7.318;2022-07-29T13:16:22;101512.20;;;20.65;81.81
47811;BME280;33575;52.600;7.318;2022-07-29T13:21:22;101503.70;;;20.58;84.19
47811;BME280;33575;52.600;7.318;2022-07-29T13:23:53;101499.32;;;20.63;83.44
47811;BME280;33575;52.600;7.318;2022-07-29T13:26:23;101501.87;;;20.67;82.89
47811;BME280;33575;52.600;7.318;2022-07-29T13:28:53;101504.64;;;20.70;83.28
47811;BME280;33575;52.600;7.318;2022-07-29T13:31:24;101503.39;;;20.72;81.80
47811;BME280;33575;52.600;7.318;2022-07-29T13:33:55;101504.26;;;20.76;81.47